»·PEaware :: N205DE KRBL-KFOT

N205DE :: KRBL-KFOT

FLIGHT INFORMATION

Flight Status: Arrived
Operator: Privately registered:
United States
More flights under this callsign
Pilot: Lee W. (44)
Aircraft: MOONEY M-20 201 202 205 220 ATS MSE
(M20P)
More flights by this aircraft type
Origin: KRBL Red Bluff Mun
United States
Destination: KFOT Rohnerville
United States
More flights between these airports :: More routes between these airports
Route: RBL TOMAD DINSE FOT
File this flight plan on PilotEdge
Remarks:
Altitude:
(Current/Filed)
8,000ft
Speed:
(Current/Filed)
160kts
Departed: 11-Mar-12 05:14 PM
Arrived: 11-Mar-12 06:02 PM
Distance/Time
Traveled:
90nm/0:47
Distance/Time
To Go:
Arrived

Flight Plot

Page will automatically refresh every two minutes.


Map Options




Map Legend


Flown Route
Filed Route
Departure Airport
Arrival Airport
Navaid (VOR, NDB)
Fix

Horizontal Profiles

Position Reports

Time Latitude Longitude Heading Altitude Ground
Speed
11-Mar-12 17:07 40.154093 -122.251186 0 351ft 0kts
11-Mar-12 17:08 40.154093 -122.251186 0 351ft 0kts
11-Mar-12 17:09 40.154093 -122.251186 0 351ft 0kts
11-Mar-12 17:10 40.155453 -122.252353 339 352ft 12kts
11-Mar-12 17:11 40.158316 -122.253260 289 352ft 0kts
11-Mar-12 17:12 40.158056 -122.254321 165 351ft 0kts
11-Mar-12 17:13 40.153316 -122.253055 169 352ft 50kts
11-Mar-12 17:14 40.139086 -122.244706 156 517ft 54kts
11-Mar-12 17:15 40.122242 -122.235901 167 674ft 68kts
11-Mar-12 17:16 40.104205 -122.226885 166 953ft 65kts
11-Mar-12 17:17 40.093386 -122.230529 288 1209ft 68kts
11-Mar-12 17:18 40.105070 -122.252393 279 1356ft 79kts
11-Mar-12 17:19 40.111687 -122.278688 274 1745ft 75kts
11-Mar-12 17:20 40.120643 -122.309527 284 1957ft 117kts
11-Mar-12 17:21 40.132433 -122.348536 284 2582ft 114kts
11-Mar-12 17:22 40.144021 -122.387290 283 3121ft 114kts
11-Mar-12 17:23 40.155358 -122.425845 282 3723ft 113kts
11-Mar-12 17:24 40.166629 -122.464378 283 4391ft 114kts
11-Mar-12 17:25 40.177950 -122.502824 282 5013ft 114kts
11-Mar-12 17:26 40.189406 -122.541587 282 5682ft 115kts
11-Mar-12 17:27 40.201065 -122.581068 283 6227ft 116kts
11-Mar-12 17:28 40.212963 -122.621408 283 6749ft 122kts
11-Mar-12 17:29 40.225573 -122.664177 284 7276ft 128kts
11-Mar-12 17:30 40.238675 -122.708572 285 7776ft 132kts
11-Mar-12 17:31 40.252637 -122.756072 286 7988ft 153kts
11-Mar-12 17:32 40.268764 -122.811692 287 7988ft 171kts
11-Mar-12 17:33 40.286026 -122.871305 288 8003ft 178kts
11-Mar-12 17:34 40.302469 -122.928147 288 7983ft 182kts
11-Mar-12 17:35 40.320142 -122.989361 289 7991ft 184kts
11-Mar-12 17:36 40.337964 -123.051050 289 8000ft 177kts
11-Mar-12 17:37 40.354032 -123.107120 289 7984ft 159kts
11-Mar-12 17:38 40.369680 -123.159235 288 8000ft 152kts
11-Mar-12 17:39 40.384168 -123.208616 287 8000ft 140kts
11-Mar-12 17:40 40.398143 -123.257037 287 8050ft 152kts
11-Mar-12 17:41 40.413988 -123.312007 287 8052ft 166kts
11-Mar-12 17:42 40.430060 -123.368182 287 8114ft 166kts
11-Mar-12 17:45 40.483172 -123.555334 287 8101ft 172kts
11-Mar-12 17:46 40.494429 -123.595242 287 8108ft 176kts
11-Mar-12 17:47 40.511330 -123.655320 288 8084ft 173kts
11-Mar-12 17:48 40.525077 -123.714913 259 8098ft 171kts
11-Mar-12 17:49 40.516492 -123.786122 260 8088ft 168kts
11-Mar-12 17:50 40.487403 -123.818625 220 7762ft 182kts
11-Mar-12 17:51 40.456697 -123.871737 237 6959ft 163kts
11-Mar-12 17:52 40.464577 -123.915381 298 6173ft 115kts
11-Mar-12 17:53 40.480805 -123.949260 298 5317ft 113kts
11-Mar-12 17:54 40.498829 -123.982651 302 4387ft 108kts
11-Mar-12 17:55 40.512301 -124.017684 283 3195ft 109kts
11-Mar-12 17:56 40.520084 -124.050148 282 2483ft 89kts
11-Mar-12 17:57 40.525163 -124.083149 293 1433ft 101kts
11-Mar-12 17:58 40.540214 -124.108314 299 769ft 79kts
11-Mar-12 17:59 40.551999 -124.129361 301 395ft 61kts
11-Mar-12 18:01 40.554140 -124.131475 120 395ft 0kts
11-Mar-12 18:02 40.553320 -124.130028 126 395ft 11kts
11-Mar-12 18:03 40.551335 -124.126657 126 395ft 10kts
11-Mar-12 18:04 40.550765 -124.126803 217 395ft 5kts
11-Mar-12 18:05 40.559163 -124.143002 288 523ft 80kts
11-Mar-12 18:06 40.568333 -124.171073 253 1006ft 91kts
11-Mar-12 18:07 40.545404 -124.175198 167 1518ft 98kts
11-Mar-12 18:08 40.518434 -124.168349 142 2009ft 105kts

Navigation Log

Ident Type
Flight plan parsing failed, navigation log unavailable